createdAt,value
2022-12-09T00:00:51.651Z,97529.69
2022-12-09T00:04:00.677Z,97529.41
2022-12-09T00:07:07.204Z,97531.31
2022-12-09T00:10:13.074Z,97540.25
2022-12-09T00:13:19.444Z,97537.06
2022-12-09T00:16:27.424Z,97534.22
2022-12-09T00:19:36.735Z,97534.75
2022-12-09T00:22:42.629Z,97534.53
2022-12-09T00:25:48.796Z,97535.66
2022-12-09T00:28:56.144Z,97541.25
2022-12-09T00:32:02.393Z,97537.91
2022-12-09T00:35:11.672Z,97539.97
2022-12-09T00:38:17.824Z,97545.16
2022-12-09T00:41:23.421Z,97540.72
2022-12-09T00:44:30.627Z,97554.41
2022-12-09T00:47:36.019Z,97559.41
2022-12-09T00:50:45.182Z,97562.91
2022-12-09T00:53:54.969Z,97569.81
2022-12-09T00:57:01.214Z,97566.13
2022-12-09T01:00:08.232Z,97565.13
2022-12-09T01:03:17.707Z,97560.63
2022-12-09T01:06:28.779Z,97552.34
2022-12-09T01:09:37.777Z,97562.63
2022-12-09T01:12:43.572Z,97555.56
2022-12-09T01:15:49.977Z,97558.94
2022-12-09T01:18:57.601Z,97559.53
2022-12-09T01:22:07.344Z,97554.34
2022-12-09T01:25:13.466Z,97548.38
2022-12-09T01:28:20.344Z,97559.25
2022-12-09T01:31:28.356Z,97551.44
2022-12-09T01:34:34.991Z,97554.94
2022-12-09T01:37:43.200Z,97550.75
2022-12-09T01:40:49.879Z,97551.59
2022-12-09T01:44:22.605Z,97551.06
2022-12-09T01:47:28.918Z,97543.81
2022-12-09T01:50:39.516Z,97536.19
2022-12-09T01:53:53.665Z,97533.38
2022-12-09T01:56:59.803Z,97531.75
2022-12-09T02:00:08.150Z,97532.31
2022-12-09T02:03:22.324Z,97530.19
2022-12-09T02:06:28.939Z,97518.56
2022-12-09T02:09:37.616Z,97514.97
2022-12-09T02:12:59.334Z,97519.91
2022-12-09T02:16:16.510Z,97516.09
2022-12-09T02:19:50.503Z,97516.69
2022-12-09T02:23:09.445Z,97513.19
2022-12-09T02:26:33.733Z,97517.22
2022-12-09T02:30:07.050Z,97516.53
2022-12-09T02:33:42.890Z,97520.84
2022-12-09T02:37:09.744Z,97514.72
2022-12-09T02:40:27.501Z,97513.19
2022-12-09T02:43:49.466Z,97508.81
2022-12-09T02:47:00.873Z,97506.81
2022-12-09T02:50:15.493Z,97515.38
2022-12-09T02:53:29.622Z,97504.31
2022-12-09T02:56:39.087Z,97501.72
2022-12-09T02:59:45.021Z,97498.56
2022-12-09T03:02:59.609Z,97496.38
2022-12-09T03:06:13.362Z,97503.41
2022-12-09T03:09:31.876Z,97503.72
2022-12-09T03:12:43.942Z,97500.50
2022-12-09T03:16:00.345Z,97498.28
2022-12-09T03:19:18.526Z,97504.09
2022-12-09T03:22:33.259Z,97501.88
2022-12-09T03:25:51.661Z,97505.38
2022-12-09T03:29:01.210Z,97501.94
2022-12-09T03:32:07.634Z,97505.25
2022-12-09T03:35:23.727Z,97500.66
2022-12-09T03:38:37.909Z,97501.28
2022-12-09T03:41:53.108Z,97501.41
2022-12-09T03:45:06.093Z,97499.72
2022-12-09T03:48:14.677Z,97502.31
2022-12-09T03:51:31.384Z,97491.31
2022-12-09T03:54:47.245Z,97479.53
2022-12-09T03:58:03.709Z,97494.69
2022-12-09T04:01:10.846Z,97494.84
2022-12-09T04:04:16.949Z,97491.63
2022-12-09T04:07:23.508Z,97486.28
2022-12-09T04:10:29.727Z,97445.63
2022-12-09T04:13:39.992Z,97488.88
2022-12-09T04:16:46.100Z,97486.00
2022-12-09T04:19:52.906Z,97479.69
2022-12-09T04:22:59.588Z,97490.09
2022-12-09T04:26:06.733Z,97486.75
2022-12-09T04:29:16.538Z,97483.53
2022-12-09T04:32:23.258Z,97480.19
2022-12-09T04:35:28.712Z,97486.19
2022-12-09T04:38:34.970Z,97483.59
2022-12-09T04:41:40.885Z,97483.81
2022-12-09T04:44:50.281Z,97482.69
2022-12-09T04:47:55.945Z,97481.69
2022-12-09T04:51:03.223Z,97490.25
2022-12-09T04:54:08.983Z,97481.53
2022-12-09T04:57:15.358Z,97484.75
2022-12-09T05:00:25.280Z,97493.25
2022-12-09T05:03:32.379Z,97495.50
2022-12-09T05:06:38.714Z,97489.03
2022-12-09T05:09:45.267Z,97491.38
2022-12-09T05:12:50.844Z,97492.22
2022-12-09T05:16:04.312Z,97493.81
2022-12-09T05:19:11.510Z,97495.44
2022-12-09T05:22:20.631Z,97493.91
2022-12-09T05:25:27.085Z,97492.84
2022-12-09T05:28:34.526Z,97486.41
2022-12-09T05:31:43.359Z,97485.03
2022-12-09T05:34:49.668Z,97482.84
2022-12-09T05:37:55.411Z,97488.28
2022-12-09T05:41:02.834Z,97483.31
2022-12-09T05:44:08.903Z,97485.06
2022-12-09T05:47:18.458Z,97487.66
2022-12-09T05:50:24.112Z,97489.78
2022-12-09T05:53:31.472Z,97485.19
2022-12-09T05:56:37.252Z,97489.94
2022-12-09T05:59:44.953Z,97490.34
2022-12-09T06:02:53.499Z,97498.28
2022-12-09T06:06:00.043Z,97501.69
2022-12-09T06:09:08.735Z,97504.94
2022-12-09T06:12:15.234Z,97498.72
2022-12-09T06:15:22.083Z,97498.56
2022-12-09T06:18:33.120Z,97497.88
2022-12-09T06:21:41.854Z,97489.69
2022-12-09T06:24:51.130Z,97494.78
2022-12-09T06:28:00.949Z,97492.09
2022-12-09T06:31:07.962Z,97495.56
2022-12-09T06:34:16.586Z,97490.97
2022-12-09T06:37:23.069Z,97490.91
2022-12-09T06:40:28.979Z,97462.91
2022-12-09T06:43:35.718Z,97489.84
2022-12-09T06:46:42.357Z,97479.38
2022-12-09T06:49:52.362Z,97481.00
2022-12-09T06:52:57.980Z,97479.22
2022-12-09T06:56:11.509Z,97480.16
2022-12-09T06:59:17.571Z,97475.84
2022-12-09T07:02:24.782Z,97467.16
2022-12-09T07:05:35.220Z,97475.72
2022-12-09T07:08:41.829Z,97473.13
2022-12-09T07:11:49.018Z,97470.38
2022-12-09T07:14:55.301Z,97474.50
2022-12-09T07:18:01.154Z,97463.09
2022-12-09T07:21:18.780Z,97456.75
2022-12-09T07:24:24.377Z,97467.00
2022-12-09T07:27:30.995Z,97468.38
2022-12-09T07:30:36.782Z,97469.78
2022-12-09T07:33:43.123Z,97453.00
2022-12-09T07:36:52.632Z,97467.31
2022-12-09T07:40:01.067Z,97465.31
2022-12-09T07:43:07.544Z,97460.72
2022-12-09T07:46:13.485Z,97447.41
2022-12-09T07:49:20.936Z,97420.66
2022-12-09T07:52:29.519Z,97464.97
2022-12-09T07:55:38.138Z,97467.25
2022-12-09T07:58:45.840Z,97470.38
2022-12-09T08:01:52.303Z,97473.50
2022-12-09T08:04:57.784Z,97459.91
2022-12-09T08:08:07.721Z,97475.53
2022-12-09T08:11:17.952Z,97459.22
2022-12-09T08:14:24.634Z,97474.03
2022-12-09T08:17:31.025Z,97483.13
2022-12-09T08:20:37.800Z,97483.66
2022-12-09T08:23:47.243Z,97486.88
2022-12-09T08:26:54.404Z,97478.88
2022-12-09T08:30:07.448Z,97479.28
2022-12-09T08:33:14.266Z,97486.03
2022-12-09T08:36:23.900Z,97488.28
2022-12-09T08:39:33.707Z,97488.88
2022-12-09T08:42:39.272Z,97448.97
2022-12-09T08:45:46.125Z,97476.09
2022-12-09T08:48:52.020Z,97479.97
2022-12-09T08:51:59.071Z,97460.53
2022-12-09T08:55:08.128Z,97390.75
2022-12-09T08:58:14.327Z,97476.38
2022-12-09T09:01:23.518Z,97472.69
2022-12-09T09:04:30.051Z,97470.84
2022-12-09T09:07:36.536Z,97471.53
2022-12-09T09:10:46.215Z,97465.28
2022-12-09T09:13:54.579Z,97470.31
2022-12-09T09:17:01.049Z,97460.38
2022-12-09T09:20:08.073Z,97461.63
2022-12-09T09:23:15.105Z,97462.00
2022-12-09T09:26:28.202Z,97451.13
2022-12-09T09:29:35.073Z,97446.66
2022-12-09T09:32:41.373Z,97440.22
2022-12-09T09:35:48.027Z,97446.94
2022-12-09T09:39:02.957Z,97446.41
2022-12-09T09:42:40.993Z,97440.63
2022-12-09T09:45:49.138Z,97449.19
2022-12-09T09:49:06.852Z,97435.59
2022-12-09T09:52:22.640Z,97436.81
2022-12-09T09:55:46.753Z,97424.94
2022-12-09T09:59:19.592Z,97427.03
2022-12-09T10:02:53.580Z,97420.50
2022-12-09T10:06:07.721Z,97423.94
2022-12-09T10:09:24.842Z,97427.72
2022-12-09T10:12:50.670Z,97427.53
2022-12-09T10:16:21.077Z,97422.50
2022-12-09T10:19:36.987Z,97419.25
2022-12-09T10:22:49.775Z,97411.97
2022-12-09T10:26:01.266Z,97415.78
2022-12-09T10:29:22.109Z,97408.69
2022-12-09T10:32:35.457Z,97406.44
2022-12-09T10:35:42.498Z,97404.56
2022-12-09T10:38:49.457Z,97399.88
2022-12-09T10:42:16.845Z,97385.63
2022-12-09T10:45:23.042Z,97407.94
2022-12-09T10:48:37.876Z,97401.72
2022-12-09T10:51:54.077Z,97408.59
2022-12-09T10:55:01.847Z,97400.56
2022-12-09T10:58:20.425Z,97402.72
2022-12-09T11:01:27.185Z,97401.16
2022-12-09T11:04:40.761Z,97393.22
2022-12-09T11:07:52.388Z,97391.19
2022-12-09T11:10:59.377Z,97402.50
2022-12-09T11:14:06.895Z,97389.41
2022-12-09T11:17:21.023Z,97347.88
2022-12-09T11:20:34.614Z,97372.63
2022-12-09T11:23:40.966Z,97375.78
2022-12-09T11:26:47.756Z,97365.75
2022-12-09T11:30:13.800Z,97361.50
2022-12-09T11:33:31.570Z,97363.16
2022-12-09T11:36:48.475Z,97349.25
2022-12-09T11:39:55.444Z,97344.66
2022-12-09T11:43:04.363Z,97343.63
2022-12-09T11:46:25.009Z,97344.25
2022-12-09T11:49:36.076Z,97328.38
2022-12-09T11:52:46.836Z,97327.41
2022-12-09T11:56:04.178Z,97329.84
2022-12-09T11:59:19.562Z,97329.63
2022-12-09T12:02:38.228Z,97320.84
2022-12-09T12:05:47.846Z,97322.50
2022-12-09T12:09:15.737Z,97316.88
2022-12-09T12:12:38.393Z,97314.78
2022-12-09T12:15:55.230Z,97316.22
2022-12-09T12:19:16.782Z,97311.72
2022-12-09T12:22:59.283Z,97304.00
2022-12-09T12:26:22.078Z,97287.47
2022-12-09T12:29:45.255Z,97296.75
2022-12-09T12:37:10.811Z,97282.31
2022-12-09T12:40:39.852Z,97272.03
2022-12-09T12:44:32.160Z,97274.94
2022-12-09T12:47:53.567Z,97273.84
2022-12-09T12:51:23.418Z,97271.44
2022-12-09T12:54:49.737Z,97264.75
2022-12-09T12:58:10.972Z,97260.50
2022-12-09T13:01:33.044Z,97265.50
2022-12-09T13:04:51.075Z,97265.03
2022-12-09T13:08:08.065Z,97261.50
2022-12-09T13:11:23.678Z,97257.50
2022-12-09T13:14:46.193Z,97262.16
2022-12-09T13:17:58.693Z,97254.34
2022-12-09T13:21:08.000Z,97260.41
2022-12-09T13:24:34.816Z,97255.19
2022-12-09T13:27:54.403Z,97262.59
2022-12-09T13:31:03.456Z,97248.09
2022-12-09T13:34:40.403Z,97244.94
2022-12-09T13:38:03.583Z,97248.47
2022-12-09T13:42:04.288Z,97244.47
2022-12-09T13:45:21.496Z,97245.22
2022-12-09T13:48:53.321Z,97242.06
2022-12-09T13:52:01.586Z,97238.25
2022-12-09T13:55:20.175Z,97221.31
2022-12-09T13:59:28.125Z,97226.34
2022-12-09T14:02:43.583Z,97235.66
2022-12-09T14:05:52.513Z,97227.28
2022-12-09T14:09:09.709Z,97233.81
2022-12-09T14:12:18.761Z,97238.81
2022-12-09T14:15:41.363Z,97237.88
2022-12-09T14:18:47.780Z,97234.16
2022-12-09T14:22:37.119Z,97240.56
2022-12-09T14:26:11.352Z,97202.88
2022-12-09T14:29:56.021Z,97230.03
2022-12-09T14:33:01.568Z,97223.34
2022-12-09T14:36:26.496Z,97220.34
2022-12-09T14:39:46.764Z,97222.56
2022-12-09T14:43:12.677Z,97222.75
2022-12-09T14:46:30.078Z,97223.50
2022-12-09T14:49:44.970Z,97218.84
2022-12-09T14:53:00.757Z,97218.94
2022-12-09T14:56:08.739Z,97222.56
2022-12-09T14:59:25.315Z,97221.06
2022-12-09T15:02:33.941Z,97214.19
2022-12-09T15:05:39.724Z,97215.78
2022-12-09T15:08:45.997Z,97210.97
2022-12-09T15:11:51.828Z,97206.56
2022-12-09T15:15:08.932Z,97198.38
2022-12-09T15:18:26.095Z,97196.88
2022-12-09T15:21:35.914Z,97187.03
2022-12-09T15:24:50.669Z,97185.66
2022-12-09T15:28:04.708Z,97138.09
2022-12-09T15:31:21.225Z,97152.69
2022-12-09T15:34:30.093Z,97117.81
2022-12-09T15:37:36.528Z,97155.91
2022-12-09T15:41:07.149Z,97149.34
2022-12-09T15:44:21.036Z,97145.00
2022-12-09T15:47:40.154Z,97152.22
2022-12-09T15:50:57.043Z,97145.53
2022-12-09T15:54:09.941Z,97142.34
2022-12-09T15:57:22.531Z,97134.97
2022-12-09T16:00:29.422Z,97136.16
2022-12-09T16:03:40.667Z,97117.38
2022-12-09T16:06:50.239Z,97117.38
2022-12-09T16:10:14.758Z,97114.22
2022-12-09T16:13:23.931Z,97089.41
2022-12-09T16:16:42.228Z,97104.41
2022-12-09T16:19:51.776Z,97109.34
2022-12-09T16:22:57.399Z,97108.00
2022-12-09T16:26:07.611Z,97108.69
2022-12-09T16:29:28.169Z,97113.44
2022-12-09T16:32:44.019Z,97107.75
2022-12-09T16:36:03.696Z,97104.31
2022-12-09T16:39:38.272Z,97095.25
2022-12-09T16:42:43.770Z,97094.88
2022-12-09T16:45:53.637Z,97096.09
2022-12-09T16:49:04.666Z,97091.84
2022-12-09T16:52:20.662Z,97085.28
2022-12-09T16:55:29.412Z,97084.13
2022-12-09T16:58:39.035Z,97081.53
2022-12-09T17:01:46.058Z,97078.19
2022-12-09T17:04:54.336Z,97074.91
2022-12-09T17:08:02.538Z,97071.66
2022-12-09T17:11:09.489Z,97071.66
2022-12-09T17:14:14.913Z,97068.31
2022-12-09T17:17:21.460Z,97067.47
2022-12-09T17:20:27.373Z,97068.09
2022-12-09T17:23:40.195Z,97062.16
2022-12-09T17:26:46.016Z,97052.72
2022-12-09T17:29:52.441Z,97050.19
2022-12-09T17:32:58.104Z,97049.59
2022-12-09T17:36:04.774Z,97048.16
2022-12-09T17:39:15.178Z,97025.38
2022-12-09T17:42:21.420Z,97035.84
2022-12-09T17:45:27.001Z,97037.84
2022-12-09T17:48:37.299Z,97038.94
2022-12-09T17:51:43.785Z,97030.22
2022-12-09T17:54:53.054Z,97032.13
2022-12-09T17:57:58.534Z,97030.53
2022-12-09T18:01:08.499Z,97040.19
2022-12-09T18:04:18.965Z,97038.88
2022-12-09T18:07:25.226Z,97038.09
2022-12-09T18:10:33.449Z,97031.03
2022-12-09T18:13:41.677Z,97008.25
2022-12-09T18:16:49.353Z,97027.50
2022-12-09T18:19:56.986Z,97026.69
2022-12-09T18:23:02.644Z,97019.13
2022-12-09T18:26:17.390Z,97012.44
2022-12-09T18:29:23.140Z,97010.00
2022-12-09T18:32:35.740Z,96998.88
2022-12-09T18:35:43.328Z,97002.72
2022-12-09T18:38:50.646Z,97004.72
2022-12-09T18:41:58.784Z,97004.72
2022-12-09T18:45:05.130Z,97012.50
2022-12-09T18:48:10.597Z,97013.31
2022-12-09T18:51:20.121Z,97008.06
2022-12-09T18:54:28.477Z,96996.09
2022-12-09T18:57:37.512Z,96998.00
2022-12-09T19:00:42.902Z,96989.75
2022-12-09T19:03:50.799Z,96993.44
2022-12-09T19:07:00.485Z,96993.59
2022-12-09T19:10:08.129Z,96981.53
2022-12-09T19:13:16.355Z,96979.88
2022-12-09T19:16:24.498Z,96969.66
2022-12-09T19:19:31.288Z,96975.13
2022-12-09T19:22:37.634Z,96972.69
2022-12-09T19:25:44.329Z,96971.94
2022-12-09T19:28:57.287Z,96967.69
2022-12-09T19:32:23.553Z,96969.34
2022-12-09T19:35:33.857Z,96968.59
2022-12-09T19:38:39.460Z,96960.88
2022-12-09T19:41:47.466Z,96940.72
2022-12-09T19:45:05.482Z,96960.53
2022-12-09T19:48:15.508Z,96958.84
2022-12-09T19:51:22.790Z,96963.03
2022-12-09T19:54:29.881Z,96968.91
2022-12-09T19:57:35.270Z,96957.44
2022-12-09T20:00:44.287Z,96961.72
2022-12-09T20:03:53.973Z,96954.09
2022-12-09T20:07:04.873Z,96948.91
2022-12-09T20:10:13.543Z,96921.03
2022-12-09T20:13:20.046Z,96942.78
2022-12-09T20:16:29.684Z,96936.53
2022-12-09T20:19:36.939Z,96932.25
2022-12-09T20:22:43.044Z,96940.81
2022-12-09T20:25:49.473Z,96938.03
2022-12-09T20:28:58.042Z,96931.06
2022-12-09T20:32:07.662Z,96937.81
2022-12-09T20:35:13.856Z,96930.94
2022-12-09T20:38:20.399Z,96930.69
2022-12-09T20:41:28.387Z,96932.69
2022-12-09T20:44:35.345Z,96924.94
2022-12-09T20:47:43.545Z,96926.47
2022-12-09T20:50:49.818Z,96922.03
2022-12-09T20:53:56.853Z,96920.34
2022-12-09T20:57:03.916Z,96928.63
2022-12-09T21:00:11.185Z,96921.00
2022-12-09T21:03:20.779Z,96918.41
2022-12-09T21:06:30.411Z,96919.31
2022-12-09T21:09:36.811Z,96920.69
2022-12-09T21:12:42.165Z,96926.69
2022-12-09T21:15:48.398Z,96923.09
2022-12-09T21:18:59.815Z,96923.19
2022-12-09T21:22:07.392Z,96922.44
2022-12-09T21:25:13.771Z,96920.09
2022-12-09T21:28:20.210Z,96912.31
2022-12-09T21:31:30.278Z,96906.94
2022-12-09T21:34:39.477Z,96910.47
2022-12-09T21:37:45.355Z,96906.94
2022-12-09T21:40:52.260Z,96920.69
2022-12-09T21:43:58.199Z,96916.31
2022-12-09T21:47:04.431Z,96911.97
2022-12-09T21:50:13.170Z,96916.56
2022-12-09T21:53:20.060Z,96908.94
2022-12-09T21:56:30.408Z,96927.88
2022-12-09T21:59:36.643Z,96906.94
2022-12-09T22:02:43.605Z,96922.50
2022-12-09T22:05:58.121Z,96925.09
2022-12-09T22:09:08.418Z,96920.50
2022-12-09T22:12:14.672Z,96921.19
2022-12-09T22:15:20.480Z,96918.50
2022-12-09T22:18:27.069Z,96915.72
2022-12-09T22:21:36.845Z,96912.34
2022-12-09T22:24:43.360Z,96921.75
2022-12-09T22:27:48.818Z,96917.34
2022-12-09T22:30:55.115Z,96912.84
2022-12-09T22:34:05.796Z,96903.16
2022-12-09T22:37:42.028Z,96909.16
2022-12-09T22:40:40.719Z,96911.44
2022-12-09T22:43:48.419Z,96913.50
2022-12-09T22:46:54.133Z,96908.31
2022-12-09T22:50:00.452Z,96904.13
2022-12-09T22:53:08.829Z,96904.94
2022-12-09T22:56:15.881Z,96861.59
2022-12-09T22:59:21.806Z,96903.28
2022-12-09T23:02:28.168Z,96918.84
2022-12-09T23:05:35.003Z,96928.19
2022-12-09T23:08:47.121Z,96926.63
2022-12-09T23:11:54.360Z,96917.31
2022-12-09T23:15:00.613Z,96900.56
2022-12-09T23:18:06.883Z,96918.16
2022-12-09T23:21:19.869Z,96919.31
2022-12-09T23:24:31.026Z,96926.47
2022-12-09T23:27:37.895Z,96916.28
2022-12-09T23:30:43.307Z,96916.00
2022-12-09T23:33:52.224Z,96905.56
2022-12-09T23:36:57.581Z,96913.44
2022-12-09T23:40:07.524Z,96903.22
2022-12-09T23:43:13.115Z,96902.22
2022-12-09T23:46:23.254Z,96900.88
2022-12-09T23:49:28.694Z,96906.75
2022-12-09T23:52:38.430Z,96919.69
2022-12-09T23:55:47.493Z,96913.44
2022-12-09T23:58:58.655Z,96917.63
